Time;durP1;ratioP1;P1;durP2;ratioP2;P2;SDS_P1;SDS_P2;PMS_P1;PMS_P2;Temp;Humidity;BMP_temperature;BMP_pressure;BME280_temperature;BME280_humidity;BME280_pressure;Samples;Min_cycle;Max_cycle;Signal;HPM_P1;HPM_P2
2022/07/04 00:00:49;;;;;;;0.80;0.40;;;13.10;99.90;;;;;;5054571;28;20522;-86
2022/07/04 00:03:17;;;;;;;0.40;0.40;;;13.10;99.90;;;;;;5054280;28;20847;-87
2022/07/04 00:05:44;;;;;;;0.57;0.40;;;12.90;99.90;;;;;;5054034;28;20372;-85
2022/07/04 00:08:11;;;;;;;2.25;0.50;;;12.90;99.90;;;;;;5054011;28;20473;-85
2022/07/04 00:10:39;;;;;;;0.60;0.40;;;13.00;99.90;;;;;;5052836;28;20466;-85
2022/07/04 00:13:06;;;;;;;0.55;0.40;;;12.90;99.90;;;;;;5054689;28;20740;-84
2022/07/04 00:15:33;;;;;;;0.40;0.30;;;12.80;99.90;;;;;;5053985;28;20750;-85
2022/07/04 00:18:00;;;;;;;1.52;0.50;;;12.80;99.90;;;;;;5053522;28;20404;-85
2022/07/04 00:20:27;;;;;;;1.52;0.40;;;12.80;99.90;;;;;;5053809;28;20395;-84
2022/07/04 00:22:55;;;;;;;2.58;0.40;;;12.70;99.90;;;;;;5053899;28;20387;-84
2022/07/04 00:25:22;;;;;;;0.98;0.40;;;12.70;99.90;;;;;;5053696;28;20407;-87
2022/07/04 00:27:49;;;;;;;0.73;0.30;;;12.70;99.90;;;;;;5053750;28;20372;-87
2022/07/04 00:30:16;;;;;;;0.80;0.28;;;12.70;99.90;;;;;;5053356;28;20372;-86
2022/07/04 00:32:43;;;;;;;0.68;0.40;;;12.70;99.90;;;;;;5053492;28;20445;-85
2022/07/04 00:35:11;;;;;;;0.50;0.30;;;12.70;99.90;;;;;;5053577;28;20372;-84
2022/07/04 00:37:38;;;;;;;0.38;0.20;;;12.80;99.90;;;;;;5053697;28;20448;-85
2022/07/04 00:40:05;;;;;;;0.70;0.30;;;12.80;99.90;;;;;;5053343;28;20375;-84
2022/07/04 00:42:33;;;;;;;0.33;0.30;;;12.90;99.90;;;;;;5053321;28;20493;-84
2022/07/04 00:45:00;;;;;;;0.45;0.30;;;12.90;99.90;;;;;;5053105;28;20805;-84
2022/07/04 00:47:27;;;;;;;0.45;0.40;;;12.90;99.90;;;;;;5053473;28;20410;-84
2022/07/04 00:49:54;;;;;;;0.60;0.30;;;12.90;99.90;;;;;;5053307;28;20941;-83
2022/07/04 00:52:21;;;;;;;1.10;0.30;;;12.90;99.90;;;;;;5053247;28;20400;-83
2022/07/04 00:54:49;;;;;;;0.60;0.40;;;12.90;99.90;;;;;;5053531;28;20482;-87
2022/07/04 00:57:16;;;;;;;0.80;0.40;;;12.90;99.90;;;;;;5053045;28;20473;-86
2022/07/04 00:59:43;;;;;;;1.27;0.50;;;12.90;99.90;;;;;;5052649;28;20412;-86
2022/07/04 01:02:10;;;;;;;0.70;0.30;;;12.90;99.90;;;;;;5052848;28;20379;-87
2022/07/04 01:04:38;;;;;;;0.40;0.40;;;12.90;99.90;;;;;;5053066;28;20886;-85
2022/07/04 01:07:05;;;;;;;0.30;0.30;;;13.00;99.90;;;;;;5052966;28;20375;-87
2022/07/04 01:09:33;;;;;;;0.38;0.30;;;13.00;99.90;;;;;;5053179;28;20751;-84
2022/07/04 01:12:00;;;;;;;0.52;0.40;;;13.00;99.90;;;;;;5052909;28;20455;-88
2022/07/04 01:14:27;;;;;;;0.93;0.40;;;13.00;99.90;;;;;;5051926;28;20376;-84
2022/07/04 01:16:54;;;;;;;0.73;0.40;;;13.00;99.90;;;;;;5051447;28;20468;-85
2022/07/04 01:19:21;;;;;;;0.80;0.50;;;13.10;99.90;;;;;;5051604;28;20380;-84
2022/07/04 01:21:48;;;;;;;1.40;0.90;;;13.10;99.90;;;;;;5053182;28;20380;-82
2022/07/04 01:24:15;;;;;;;0.40;0.40;;;13.20;99.90;;;;;;5053050;28;20378;-84
2022/07/04 01:26:42;;;;;;;0.50;0.30;;;13.10;99.90;;;;;;5051699;28;20461;-82
2022/07/04 01:29:10;;;;;;;0.40;0.40;;;13.10;99.90;;;;;;5052703;28;20370;-84
2022/07/04 01:31:37;;;;;;;0.40;0.40;;;13.10;99.90;;;;;;5052858;28;20404;-84
2022/07/04 01:34:04;;;;;;;0.68;0.40;;;13.10;99.90;;;;;;5052442;28;20450;-86
2022/07/04 01:36:31;;;;;;;0.88;0.40;;;13.10;99.90;;;;;;5051199;28;20383;-85
2022/07/04 01:38:58;;;;;;;0.40;0.40;;;13.20;99.90;;;;;;5052538;28;20380;-86
2022/07/04 01:41:25;;;;;;;1.00;0.57;;;13.10;99.90;;;;;;5051207;28;20937;-85
2022/07/04 01:43:53;;;;;;;1.20;0.77;;;13.20;99.90;;;;;;5052350;28;20418;-83
2022/07/04 01:46:20;;;;;;;0.50;0.50;;;13.30;99.90;;;;;;5052514;28;20392;-84
2022/07/04 01:48:47;;;;;;;2.10;0.60;;;13.30;99.90;;;;;;5052502;28;20360;-86
2022/07/04 01:51:14;;;;;;;3.78;0.63;;;13.20;99.90;;;;;;5052347;28;20379;-86
2022/07/04 01:53:41;;;;;;;0.60;0.60;;;13.30;99.90;;;;;;5052551;28;20868;-85
2022/07/04 01:56:08;;;;;;;1.10;0.50;;;13.30;99.90;;;;;;5052491;28;20391;-83
2022/07/04 01:58:35;;;;;;;0.70;0.50;;;13.30;99.90;;;;;;5052399;28;20403;-86
2022/07/04 02:03:48;;;;;;;1.47;0.60;;;13.30;99.90;;;;;;5052546;28;20443;-87
2022/07/04 02:06:15;;;;;;;5.15;0.68;;;13.30;99.90;;;;;;5052049;28;20367;-82
2022/07/04 02:11:27;;;;;;;2.42;0.57;;;13.40;99.90;;;;;;5053081;28;20359;-83
2022/07/04 02:13:54;;;;;;;2.38;0.50;;;13.40;99.90;;;;;;5056621;28;20376;-85
2022/07/04 02:16:22;;;;;;;4.50;0.63;;;13.50;99.90;;;;;;5055900;28;20376;-85
2022/07/04 02:18:49;;;;;;;2.60;0.60;;;13.60;99.90;;;;;;5055843;28;20414;-85
2022/07/04 02:21:16;;;;;;;1.10;0.40;;;13.60;99.90;;;;;;5056069;28;20371;-84
2022/07/04 02:23:43;;;;;;;2.30;0.50;;;13.70;99.90;;;;;;5055951;28;20379;-83
2022/07/04 02:26:13;;;;;;;0.40;0.40;;;13.70;99.90;;;;;;5054957;28;20376;-84
2022/07/04 02:28:40;;;;;;;2.28;0.63;;;13.70;99.90;;;;;;5055752;28;20727;-85
2022/07/04 02:31:07;;;;;;;1.70;0.50;;;13.70;99.90;;;;;;5056077;28;20371;-86
2022/07/04 02:33:34;;;;;;;2.30;0.43;;;13.70;99.90;;;;;;5055817;28;20441;-84
2022/07/04 02:36:01;;;;;;;5.73;0.70;;;13.70;99.90;;;;;;5055998;28;20375;-83
2022/07/04 02:38:28;;;;;;;5.53;0.70;;;13.70;99.90;;;;;;5055796;28;20410;-83
2022/07/04 02:40:55;;;;;;;1.52;0.77;;;13.70;99.90;;;;;;5055786;28;20372;-88
2022/07/04 02:43:23;;;;;;;3.67;0.70;;;13.60;99.90;;;;;;5055690;28;20383;-83
2022/07/04 02:45:50;;;;;;;2.85;0.70;;;13.70;99.90;;;;;;5055585;28;20479;-84
2022/07/04 02:48:17;;;;;;;1.93;0.77;;;13.60;99.90;;;;;;5055813;28;20463;-83
2022/07/04 02:50:44;;;;;;;2.55;1.20;;;13.70;99.90;;;;;;5055618;28;20368;-84
2022/07/04 02:53:11;;;;;;;2.20;1.10;;;13.80;99.90;;;;;;5055888;28;20372;-82
2022/07/04 02:55:38;;;;;;;1.55;0.90;;;13.70;99.90;;;;;;5055616;28;20696;-85
2022/07/04 02:58:05;;;;;;;1.83;0.70;;;13.80;99.90;;;;;;5055436;28;20422;-83
2022/07/04 03:00:32;;;;;;;1.80;0.60;;;13.70;99.90;;;;;;5055789;28;20394;-82
2022/07/04 03:02:59;;;;;;;1.33;0.30;;;13.70;99.90;;;;;;5055353;28;20386;-85
2022/07/04 03:05:31;;;;;;;1.98;0.50;;;13.60;99.90;;;;;;5055450;28;20380;-83
2022/07/04 03:07:58;;;;;;;0.70;0.50;;;13.60;99.90;;;;;;5055366;28;20418;-84
2022/07/04 03:10:25;;;;;;;1.30;0.40;;;13.70;99.90;;;;;;5055801;28;20912;-86
2022/07/04 03:12:52;;;;;;;2.50;0.50;;;13.80;99.90;;;;;;5055218;28;20388;-82
2022/07/04 03:15:19;;;;;;;4.03;0.90;;;13.90;99.90;;;;;;5055536;28;20376;-87
2022/07/04 03:17:46;;;;;;;0.70;0.60;;;13.90;99.90;;;;;;5054975;28;20399;-86
2022/07/04 03:20:14;;;;;;;0.60;0.60;;;13.80;99.90;;;;;;5055251;28;20426;-85
2022/07/04 03:22:41;;;;;;;2.60;0.80;;;13.80;99.90;;;;;;5054367;28;20380;-86
2022/07/04 03:25:08;;;;;;;1.00;0.63;;;13.90;99.90;;;;;;5054469;28;20376;-85
2022/07/04 03:27:35;;;;;;;1.02;1.00;;;14.00;99.90;;;;;;5054890;28;20379;-83
2022/07/04 03:30:03;;;;;;;4.25;1.40;;;14.00;99.90;;;;;;5054751;28;20376;-84
2022/07/04 03:32:30;;;;;;;1.35;0.80;;;14.10;99.90;;;;;;5054495;28;20387;-83
2022/07/04 03:34:57;;;;;;;1.42;0.90;;;14.10;99.90;;;;;;5054900;28;20363;-83
2022/07/04 03:37:24;;;;;;;3.20;0.87;;;14.10;99.90;;;;;;5054575;28;20469;-86
2022/07/04 03:39:55;;;;;;;1.63;0.90;;;14.00;99.90;;;;;;5055420;28;20380;-83
2022/07/04 03:42:22;;;;;;;1.60;1.40;;;14.00;99.90;;;;;;5055333;28;20475;-84
2022/07/04 03:44:50;;;;;;;1.37;1.10;;;13.80;99.90;;;;;;5054767;28;20508;-84
2022/07/04 03:47:17;;;;;;;1.40;1.10;;;14.00;99.90;;;;;;5054550;28;20372;-85
2022/07/04 03:49:44;;;;;;;1.30;0.77;;;14.00;99.90;;;;;;5054394;28;20387;-83
2022/07/04 03:52:11;;;;;;;2.88;2.58;;;14.10;99.90;;;;;;5054742;28;20372;-83
2022/07/04 03:54:38;;;;;;;1.10;1.00;;;14.10;99.90;;;;;;5054617;28;20429;-83
2022/07/04 03:57:06;;;;;;;1.58;0.70;;;14.00;99.90;;;;;;5053222;28;20479;-87
2022/07/04 03:59:33;;;;;;;1.45;0.98;;;14.00;99.90;;;;;;5054370;28;20812;-83
2022/07/04 04:02:00;;;;;;;1.80;0.90;;;14.10;99.90;;;;;;5054339;28;20844;-87
2022/07/04 04:07:12;;;;;;;8.95;1.08;;;14.10;99.90;;;;;;5054130;28;20355;-83
2022/07/04 04:09:39;;;;;;;1.52;0.70;;;14.20;99.90;;;;;;5054404;28;20376;-86
2022/07/04 04:12:07;;;;;;;1.52;0.70;;;14.20;99.90;;;;;;5054318;28;20450;-83
2022/07/04 04:14:34;;;;;;;1.85;0.88;;;14.10;99.90;;;;;;5053915;28;20814;-82
2022/07/04 04:17:01;;;;;;;3.97;0.90;;;14.10;99.90;;;;;;5053813;28;20415;-81
2022/07/04 04:19:28;;;;;;;2.65;0.90;;;14.10;99.90;;;;;;5053003;28;20394;-82
2022/07/04 04:21:55;;;;;;;1.70;0.70;;;14.10;99.90;;;;;;5052582;28;20856;-82
2022/07/04 04:24:22;;;;;;;2.00;0.70;;;14.10;99.90;;;;;;5053526;28;20463;-84
2022/07/04 04:26:52;;;;;;;1.63;0.60;;;14.00;99.90;;;;;;5053836;28;20375;-85
2022/07/04 04:29:19;;;;;;;1.52;0.40;;;14.00;99.90;;;;;;5055797;28;20384;-84
2022/07/04 04:31:46;;;;;;;0.70;0.30;;;14.00;99.90;;;;;;5057567;28;20404;-88
2022/07/04 04:34:14;;;;;;;0.63;0.60;;;13.90;99.90;;;;;;5056563;28;20483;-84
2022/07/04 04:36:41;;;;;;;2.33;0.90;;;13.80;99.90;;;;;;5054490;28;20821;-85
2022/07/04 04:39:08;;;;;;;2.03;0.90;;;13.80;99.90;;;;;;5054272;28;20391;-84
2022/07/04 04:41:38;;;;;;;2.50;0.80;;;13.80;99.90;;;;;;5053310;28;21339;-83
2022/07/04 04:44:06;;;;;;;3.10;0.60;;;13.80;99.90;;;;;;5054332;28;20376;-87
2022/07/04 04:46:33;;;;;;;2.80;0.70;;;13.80;99.90;;;;;;5053951;28;20368;-84
2022/07/04 04:49:00;;;;;;;1.17;0.60;;;13.70;99.90;;;;;;5054341;28;20430;-86
2022/07/04 04:51:28;;;;;;;1.23;0.57;;;13.70;99.90;;;;;;5053596;28;20380;-83
2022/07/04 04:53:55;;;;;;;2.55;0.50;;;13.60;99.90;;;;;;5053681;28;20406;-82
2022/07/04 04:56:22;;;;;;;1.38;0.40;;;13.60;99.90;;;;;;5053662;28;20371;-83
2022/07/04 04:58:49;;;;;;;1.13;0.50;;;13.60;99.90;;;;;;5053129;28;20400;-87
2022/07/04 05:01:17;;;;;;;1.13;0.43;;;13.60;99.90;;;;;;5052056;28;20420;-87
2022/07/04 05:03:44;;;;;;;0.40;0.40;;;13.50;99.90;;;;;;5052029;28;20786;-85
2022/07/04 05:06:11;;;;;;;0.95;0.40;;;13.50;99.90;;;;;;5053257;28;20375;-87
2022/07/04 05:08:38;;;;;;;0.50;0.30;;;13.50;99.90;;;;;;5053642;28;20401;-83
2022/07/04 05:11:05;;;;;;;0.47;0.40;;;13.50;99.90;;;;;;5053169;28;20372;-83
2022/07/04 05:13:33;;;;;;;0.38;0.35;;;13.50;99.90;;;;;;5052979;28;20412;-86
2022/07/04 05:16:00;;;;;;;0.82;0.40;;;13.50;99.90;;;;;;5053206;28;20433;-83
2022/07/04 05:18:27;;;;;;;1.02;0.40;;;13.50;99.90;;;;;;5052955;28;20442;-87
2022/07/04 05:20:54;;;;;;;0.85;0.38;;;13.50;99.90;;;;;;5052477;28;20490;-84
2022/07/04 05:23:22;;;;;;;0.77;0.38;;;13.40;99.90;;;;;;5052632;28;20384;-84
2022/07/04 05:25:49;;;;;;;0.40;0.40;;;13.50;99.90;;;;;;5052602;28;20379;-82
2022/07/04 05:28:16;;;;;;;0.88;0.30;;;13.40;99.90;;;;;;5053127;28;20434;-84
2022/07/04 05:30:43;;;;;;;0.47;0.40;;;13.40;99.90;;;;;;5053157;28;20364;-86
2022/07/04 05:33:12;;;;;;;1.48;0.50;;;13.40;99.90;;;;;;5051228;28;20446;-85
2022/07/04 05:35:39;;;;;;;2.77;0.40;;;13.40;99.90;;;;;;5052920;28;20727;-85
2022/07/04 05:38:06;;;;;;;1.30;0.50;;;13.30;99.90;;;;;;5052462;28;20399;-83
2022/07/04 05:40:33;;;;;;;1.13;0.50;;;13.40;99.90;;;;;;5052960;28;20383;-86
2022/07/04 05:43:01;;;;;;;2.20;0.70;;;13.40;99.90;;;;;;5052804;28;20414;-85
2022/07/04 05:45:28;;;;;;;4.20;1.00;;;13.40;99.90;;;;;;5052502;28;20383;-87
2022/07/04 05:47:55;;;;;;;1.60;0.60;;;13.30;99.90;;;;;;5052388;28;20497;-84
2022/07/04 05:50:22;;;;;;;0.68;0.65;;;13.30;99.90;;;;;;5051402;28;20871;-83
2022/07/04 05:52:50;;;;;;;1.88;0.52;;;13.30;99.90;;;;;;5052597;28;20387;-82
2022/07/04 05:55:17;;;;;;;0.52;0.52;;;13.30;99.90;;;;;;5052632;28;20757;-85
2022/07/04 05:57:44;;;;;;;0.95;0.50;;;13.30;99.90;;;;;;5052451;28;20410;-83
2022/07/04 06:00:12;;;;;;;0.80;0.60;;;13.30;99.90;;;;;;5052501;28;20509;-85
2022/07/04 06:02:39;;;;;;;1.77;0.60;;;13.30;99.90;;;;;;5052038;28;20375;-85
2022/07/04 06:05:06;;;;;;;2.30;0.70;;;13.30;99.90;;;;;;5052496;28;20368;-84
2022/07/04 06:07:33;;;;;;;2.55;0.55;;;13.30;99.90;;;;;;5052187;28;20382;-88
2022/07/04 06:10:01;;;;;;;2.00;0.63;;;13.30;99.90;;;;;;5052583;28;20376;-84
2022/07/04 06:12:28;;;;;;;4.78;0.80;;;13.30;99.90;;;;;;5052258;28;20380;-85
2022/07/04 06:14:55;;;;;;;2.15;0.70;;;13.20;99.90;;;;;;5052489;28;20380;-88
2022/07/04 06:17:22;;;;;;;3.03;0.90;;;13.10;99.90;;;;;;5052185;28;20388;-81
2022/07/04 06:19:49;;;;;;;1.00;0.80;;;13.10;99.90;;;;;;5052385;28;20419;-86
2022/07/04 06:22:16;;;;;;;1.30;0.60;;;13.10;99.90;;;;;;5052661;28;20402;-82
2022/07/04 06:24:43;;;;;;;1.70;0.80;;;13.10;99.90;;;;;;5052569;28;20395;-88
2022/07/04 06:27:10;;;;;;;1.80;0.60;;;13.20;99.90;;;;;;5052588;28;20766;-91
2022/07/04 06:29:37;;;;;;;3.38;0.60;;;13.20;99.90;;;;;;5052878;28;20440;-87
2022/07/04 06:32:05;;;;;;;4.77;0.80;;;13.20;99.90;;;;;;5052008;28;20367;-80
2022/07/04 06:37:17;;;;;;;2.20;0.80;;;13.10;99.90;;;;;;5052454;28;20775;-84
2022/07/04 06:39:44;;;;;;;1.92;0.80;;;13.10;99.90;;;;;;5054713;28;20458;-89
2022/07/04 06:42:11;;;;;;;3.58;0.70;;;13.10;99.90;;;;;;5053824;28;20438;-86
2022/07/04 06:44:39;;;;;;;3.80;0.80;;;13.10;99.90;;;;;;5054428;28;20380;-90
2022/07/04 06:47:06;;;;;;;2.28;0.70;;;13.10;99.90;;;;;;5053959;28;20402;-87
2022/07/04 06:49:33;;;;;;;1.20;0.50;;;13.10;99.90;;;;;;5053360;28;20721;-82
2022/07/04 06:52:00;;;;;;;1.50;0.60;;;13.10;99.90;;;;;;5054768;28;20375;-90
2022/07/04 06:54:28;;;;;;;1.30;0.60;;;13.00;99.90;;;;;;5052739;28;20375;-82
2022/07/04 06:56:55;;;;;;;2.03;0.70;;;13.00;99.90;;;;;;5051379;28;20390;-80
2022/07/04 06:59:22;;;;;;;1.23;0.90;;;13.10;99.90;;;;;;5055238;28;20388;-89
2022/07/04 07:01:49;;;;;;;1.88;0.85;;;13.00;99.90;;;;;;5055506;28;20429;-89
2022/07/04 07:04:16;;;;;;;1.48;1.10;;;13.00;99.90;;;;;;5055640;28;20388;-84
2022/07/04 07:06:43;;;;;;;1.90;1.33;;;12.90;99.90;;;;;;5055459;28;20432;-79
2022/07/04 07:09:10;;;;;;;1.73;1.50;;;12.90;99.90;;;;;;5055102;28;20376;-89
2022/07/04 07:11:37;;;;;;;2.90;1.65;;;12.90;99.90;;;;;;5055191;28;20378;-88
2022/07/04 07:14:04;;;;;;;2.60;1.90;;;12.90;99.90;;;;;;5055077;28;20408;-85
2022/07/04 07:16:31;;;;;;;1.95;1.10;;;12.90;99.90;;;;;;5054928;28;20774;-80
2022/07/04 07:18:59;;;;;;;3.83;1.47;;;12.90;99.90;;;;;;5054824;28;20855;-81
2022/07/04 07:21:26;;;;;;;3.17;1.00;;;12.90;99.90;;;;;;5055142;28;20375;-79
2022/07/04 07:23:53;;;;;;;18.23;1.40;;;12.90;99.90;;;;;;5054643;28;20732;-84
2022/07/04 07:26:20;;;;;;;6.55;1.13;;;12.90;99.90;;;;;;5054711;28;20376;-90
2022/07/04 07:28:48;;;;;;;9.23;1.08;;;12.80;99.90;;;;;;5054976;28;20748;-80
2022/07/04 07:31:15;;;;;;;3.97;0.77;;;12.70;99.90;;;;;;5054678;28;20380;-79
2022/07/04 07:33:42;;;;;;;4.77;0.77;;;12.70;99.90;;;;;;5054690;28;20453;-87
2022/07/04 07:36:11;;;;;;;5.82;0.80;;;12.60;99.90;;;;;;5056718;28;20855;-81
2022/07/04 07:38:38;;;;;;;4.65;0.80;;;12.60;99.90;;;;;;5054812;28;20398;-83
2022/07/04 07:41:09;;;;;;;1.67;0.50;;;12.50;99.90;;;;;;5054590;28;20380;-80
2022/07/04 07:43:36;;;;;;;0.93;0.53;;;12.50;99.90;;;;;;5054496;28;20376;-79
2022/07/04 07:46:08;;;;;;;1.95;0.60;;;12.50;99.90;;;;;;5054792;28;20808;-80
2022/07/04 07:48:35;;;;;;;6.80;0.90;;;12.40;99.90;;;;;;5054412;28;20383;-86
2022/07/04 07:51:03;;;;;;;3.17;1.23;;;12.40;99.90;;;;;;5054198;28;20903;-84
2022/07/04 07:53:30;;;;;;;2.57;0.80;;;12.40;99.90;;;;;;5054352;28;20392;-85
2022/07/04 07:55:57;;;;;;;5.93;1.98;;;12.40;99.90;;;;;;5054135;28;20380;-84
2022/07/04 07:58:24;;;;;;;3.10;1.58;;;12.40;99.90;;;;;;5053826;28;20405;-88
2022/07/04 08:00:51;;;;;;;2.03;0.80;;;12.30;99.90;;;;;;5054216;28;20376;-79
2022/07/04 08:06:04;;;;;;;3.97;1.50;;;12.30;99.90;;;;;;5054344;28;20399;-85
2022/07/04 08:08:31;;;;;;;2.83;1.07;;;12.20;99.90;;;;;;5053843;28;20852;-85
2022/07/04 08:10:58;;;;;;;1.58;0.98;;;12.30;99.90;;;;;;5053229;28;20375;-85
2022/07/04 08:13:25;;;;;;;1.55;0.80;;;12.20;99.90;;;;;;5053880;28;20432;-81
2022/07/04 08:15:52;;;;;;;5.55;2.75;;;12.20;99.90;;;;;;5053802;28;20714;-88
2022/07/04 08:18:22;;;;;;;3.60;1.20;;;12.20;99.90;;;;;;5053956;28;20490;-82
2022/07/04 08:20:50;;;;;;;6.72;1.13;;;12.20;99.90;;;;;;5054669;28;20844;-79
2022/07/04 08:23:18;;;;;;;5.00;1.10;;;12.20;99.90;;;;;;5054113;28;20467;-80
2022/07/04 08:25:45;;;;;;;4.32;1.73;;;12.10;99.90;;;;;;5054438;28;20379;-85
2022/07/04 08:28:12;;;;;;;2.50;1.40;;;12.20;99.90;;;;;;5053531;28;20453;-85
2022/07/04 08:30:39;;;;;;;3.50;1.20;;;12.10;99.90;;;;;;5055025;28;20378;-80
2022/07/04 08:33:07;;;;;;;4.68;1.48;;;12.10;99.90;;;;;;5053174;28;20403;-87
2022/07/04 08:35:34;;;;;;;2.73;1.07;;;12.10;99.90;;;;;;5053339;28;20774;-80
2022/07/04 08:38:01;;;;;;;2.00;1.30;;;12.20;99.90;;;;;;5053233;28;20469;-89
2022/07/04 08:40:30;;;;;;;2.30;1.02;;;12.10;99.90;;;;;;5057505;28;20446;-85
2022/07/04 08:42:57;;;;;;;5.05;1.17;;;12.10;99.90;;;;;;5053138;28;20433;-80
2022/07/04 08:45:32;;;;;;;2.35;1.10;;;12.10;99.90;;;;;;5053509;28;20425;-87
2022/07/04 08:48:09;;;;;;;2.67;1.35;;;12.10;99.90;;;;;;5053490;28;20375;-84
2022/07/04 08:51:06;;;;;;;3.47;1.70;;;12.10;99.90;;;;;;5053369;28;20441;-81
2022/07/04 08:53:35;;;;;;;2.42;1.50;;;12.10;99.90;;;;;;5051204;28;20375;-86
2022/07/04 08:58:59;;;;;;;3.80;1.20;;;12.10;99.90;;;;;;5031168;28;20402;-89
2022/07/04 09:01:28;;;;;;;6.72;1.45;;;12.10;99.90;;;;;;5031070;28;20457;-84
2022/07/04 09:03:56;;;;;;;3.90;1.10;;;12.10;99.90;;;;;;5031044;28;20832;-85
2022/07/04 09:06:26;;;;;;;3.33;0.93;;;12.10;99.90;;;;;;5030943;28;20746;-84
2022/07/04 09:08:54;;;;;;;3.10;0.80;;;12.10;99.90;;;;;;5030860;28;20377;-86
2022/07/04 09:11:21;;;;;;;3.17;0.90;;;12.10;99.90;;;;;;5030834;28;20420;-91
2022/07/04 09:13:48;;;;;;;5.45;3.65;;;12.20;99.90;;;;;;5030897;28;20401;-90
2022/07/04 09:16:16;;;;;;;3.50;1.45;;;12.10;99.90;;;;;;5030829;28;20457;-84
2022/07/04 09:18:43;;;;;;;2.10;1.17;;;12.10;99.90;;;;;;5030578;28;20408;-90
2022/07/04 09:21:10;;;;;;;7.53;1.08;;;12.20;99.90;;;;;;5029935;28;20378;-88
2022/07/04 09:23:42;;;;;;;2.27;0.90;;;12.20;99.90;;;;;;5030709;28;20385;-85
2022/07/04 09:26:22;;;;;;;7.47;1.00;;;12.20;99.90;;;;;;5031376;28;20374;-88
2022/07/04 09:28:56;;;;;;;2.45;0.80;;;12.20;99.90;;;;;;5030541;28;20967;-87
2022/07/04 09:31:25;;;;;;;2.55;1.33;;;12.20;99.90;;;;;;5030565;28;20373;-82
2022/07/04 09:33:57;;;;;;;1.65;0.60;;;12.30;99.90;;;;;;5030419;28;20440;-89
2022/07/04 09:36:26;;;;;;;3.10;0.80;;;12.30;99.90;;;;;;5051694;28;20896;-83
2022/07/04 09:39:11;;;;;;;1.95;0.80;;;12.30;99.90;;;;;;5052184;28;20399;-86
2022/07/04 09:41:58;;;;;;;1.40;0.70;;;12.20;99.90;;;;;;5052439;28;20371;-84
2022/07/04 09:44:43;;;;;;;1.90;0.80;;;12.20;99.90;;;;;;5052284;28;20399;-81
2022/07/04 09:47:27;;;;;;;1.92;0.90;;;12.30;99.90;;;;;;5055444;28;20363;-82
2022/07/04 09:50:16;;;;;;;2.33;0.70;;;12.30;99.90;;;;;;5054744;28;20931;-82
2022/07/04 09:53:03;;;;;;;1.60;0.70;;;12.30;99.90;;;;;;5054014;28;20375;-85
2022/07/04 09:55:30;;;;;;;2.80;0.70;;;12.30;99.90;;;;;;5053358;28;20748;-83
2022/07/04 09:58:04;;;;;;;2.67;0.70;;;12.20;99.90;;;;;;5054187;28;20443;-83
2022/07/04 10:00:43;;;;;;;0.52;0.52;;;12.30;99.90;;;;;;5053598;28;20367;-82
2022/07/04 10:03:22;;;;;;;1.70;0.68;;;12.20;99.90;;;;;;5052126;28;20392;-81
2022/07/04 10:06:15;;;;;;;2.65;1.00;;;12.30;99.90;;;;;;5052575;28;20399;-81
2022/07/04 10:08:44;;;;;;;2.20;0.70;;;12.30;99.90;;;;;;5051989;28;20375;-87
2022/07/04 10:11:12;;;;;;;1.90;0.70;;;12.30;99.90;;;;;;5052104;28;20383;-80
2022/07/04 10:13:39;;;;;;;4.93;0.80;;;12.20;99.90;;;;;;5052140;28;20367;-81
2022/07/04 10:16:09;;;;;;;2.47;0.80;;;12.30;99.90;;;;;;5052390;28;20410;-80
2022/07/04 10:18:36;;;;;;;2.85;0.98;;;12.30;99.90;;;;;;5051934;28;20465;-84
2022/07/04 10:21:03;;;;;;;3.10;0.60;;;12.20;99.90;;;;;;5052001;28;20445;-86
2022/07/04 10:23:33;;;;;;;1.73;0.70;;;12.20;99.90;;;;;;5052305;28;20368;-89
2022/07/04 10:26:02;;;;;;;2.20;0.80;;;12.20;99.90;;;;;;5052152;28;20384;-84
2022/07/04 10:28:29;;;;;;;1.93;0.50;;;12.20;99.90;;;;;;5051975;28;20403;-87
2022/07/04 10:30:58;;;;;;;1.90;0.70;;;12.20;99.90;;;;;;5052027;28;20368;-88
2022/07/04 10:33:29;;;;;;;1.35;0.60;;;12.20;99.90;;;;;;5054165;28;20395;-85
2022/07/04 10:36:02;;;;;;;2.08;0.70;;;12.20;99.90;;;;;;5056254;28;20422;-86
2022/07/04 10:38:36;;;;;;;2.13;0.73;;;12.20;99.90;;;;;;5054472;28;20814;-82
2022/07/04 10:41:06;;;;;;;3.00;0.75;;;12.20;99.90;;;;;;5056121;28;20387;-89
2022/07/04 10:43:37;;;;;;;1.60;0.80;;;12.20;99.90;;;;;;5055703;28;20387;-82
2022/07/04 10:46:13;;;;;;;1.80;0.57;;;12.10;99.90;;;;;;5055508;28;20407;-82
2022/07/04 10:49:07;;;;;;;2.30;1.00;;;12.10;99.90;;;;;;5057029;28;20878;-88
2022/07/04 10:51:37;;;;;;;1.58;0.70;;;12.20;99.90;;;;;;5058847;28;20403;-85
2022/07/04 10:54:07;;;;;;;3.40;0.80;;;12.20;99.90;;;;;;5055528;28;20792;-81
2022/07/04 10:57:13;;;;;;;2.42;0.80;;;12.10;99.90;;;;;;5055376;28;20399;-80
2022/07/04 10:59:43;;;;;;;3.65;0.60;;;12.10;99.90;;;;;;5033630;28;20386;-85
2022/07/04 11:02:10;;;;;;;4.57;0.70;;;12.10;99.90;;;;;;5033960;28;20386;-79
2022/07/04 11:05:03;;;;;;;3.80;0.65;;;12.10;99.90;;;;;;5033645;28;20400;-89
2022/07/04 11:07:42;;;;;;;4.13;0.80;;;12.10;99.90;;;;;;5033105;28;20369;-80
2022/07/04 11:10:12;;;;;;;5.43;0.80;;;12.10;99.90;;;;;;5033357;28;20373;-86
2022/07/04 11:12:57;;;;;;;3.22;0.60;;;12.10;99.90;;;;;;5033020;28;20865;-81
2022/07/04 11:15:33;;;;;;;4.47;0.80;;;12.10;99.90;;;;;;5032985;28;20456;-85
2022/07/04 11:18:05;;;;;;;3.53;0.73;;;12.10;99.90;;;;;;5033230;28;20416;-87
2022/07/04 11:20:39;;;;;;;4.27;0.80;;;12.10;99.90;;;;;;5036131;28;20465;-86
2022/07/04 11:23:13;;;;;;;2.85;0.90;;;12.10;99.90;;;;;;5033168;28;20377;-86
2022/07/04 11:25:42;;;;;;;2.33;1.00;;;12.10;99.90;;;;;;5032717;28;20789;-86
2022/07/04 11:28:22;;;;;;;4.07;0.80;;;12.10;99.90;;;;;;5033367;28;20373;-81
2022/07/04 11:30:54;;;;;;;8.32;1.10;;;12.10;99.90;;;;;;5033002;28;20389;-83
2022/07/04 11:33:26;;;;;;;7.70;1.20;;;12.10;99.90;;;;;;5032483;28;20908;-87
2022/07/04 11:36:20;;;;;;;7.57;1.20;;;12.10;99.90;;;;;;5044382;28;20415;-86
2022/07/04 11:38:55;;;;;;;5.80;1.00;;;12.20;99.90;;;;;;5054364;28;20501;-82
2022/07/04 11:47:06;;;;;;;5.55;1.20;;;12.20;99.90;;;;;;5067809;28;20689;-81
2022/07/04 11:49:35;;;;;;;5.93;1.30;;;12.20;99.90;;;;;;5057477;28;20437;-81
2022/07/04 11:52:03;;;;;;;5.90;0.85;;;12.30;99.90;;;;;;5059199;28;20380;-85
2022/07/04 11:54:31;;;;;;;5.70;0.90;;;12.30;99.90;;;;;;5058216;28;20513;-80
2022/07/04 11:57:21;;;;;;;4.97;1.00;;;12.20;99.90;;;;;;5058266;28;20376;-81
2022/07/04 12:00:12;;;;;;;4.33;0.93;;;12.30;99.90;;;;;;5056403;28;20495;-93
2022/07/04 12:02:41;;;;;;;6.63;1.33;;;12.20;99.90;;;;;;5055340;28;20844;-86
2022/07/04 12:05:10;;;;;;;5.55;1.00;;;12.20;99.90;;;;;;5054563;28;20872;-79
2022/07/04 12:07:43;;;;;;;7.38;1.00;;;12.20;99.90;;;;;;5054850;28;20387;-84
2022/07/04 12:10:32;;;;;;;4.68;1.00;;;12.30;99.90;;;;;;5054256;28;20372;-86
2022/07/04 12:13:09;;;;;;;6.88;1.20;;;12.20;99.90;;;;;;5054434;28;20364;-80
2022/07/04 12:15:44;;;;;;;9.70;1.30;;;12.30;99.90;;;;;;5054314;28;20375;-81
2022/07/04 12:18:29;;;;;;;7.40;1.10;;;12.30;99.90;;;;;;5053840;28;20482;-87
2022/07/04 12:21:17;;;;;;;9.20;1.25;;;12.20;99.90;;;;;;5053967;28;20372;-83
2022/07/04 12:23:55;;;;;;;4.97;1.27;;;12.20;99.90;;;;;;5054196;28;20739;-86
2022/07/04 12:26:22;;;;;;;5.68;1.38;;;12.20;99.90;;;;;;5053548;28;20736;-80
2022/07/04 12:28:49;;;;;;;5.80;1.20;;;12.30;99.90;;;;;;5053762;28;20407;-80
2022/07/04 12:31:16;;;;;;;7.38;1.30;;;12.20;99.90;;;;;;5053569;28;20428;-86
2022/07/04 12:33:55;;;;;;;10.40;1.50;;;12.20;99.90;;;;;;5053638;28;20471;-88
2022/07/04 12:36:22;;;;;;;6.80;1.20;;;12.20;99.90;;;;;;5053491;28;20372;-85
2022/07/04 12:38:49;;;;;;;9.82;1.27;;;12.30;99.90;;;;;;5053315;28;20400;-80
2022/07/04 12:41:18;;;;;;;10.80;1.33;;;12.20;99.90;;;;;;5053568;28;20403;-80
2022/07/04 12:43:54;;;;;;;8.37;1.30;;;12.20;99.90;;;;;;5053278;28;20467;-82
2022/07/04 12:46:36;;;;;;;8.60;1.37;;;12.20;99.90;;;;;;5053635;28;20451;-84
2022/07/04 12:49:04;;;;;;;8.25;1.60;;;12.20;99.90;;;;;;5053101;28;20371;-81
2022/07/04 12:51:33;;;;;;;10.50;1.48;;;12.20;99.90;;;;;;5053242;28;20407;-80
2022/07/04 12:54:08;;;;;;;11.07;1.55;;;12.30;99.90;;;;;;5053114;28;20371;-79
2022/07/04 12:56:38;;;;;;;9.80;1.50;;;12.30;99.90;;;;;;5053061;28;20387;-81
2022/07/04 12:59:19;;;;;;;9.40;1.42;;;12.20;99.90;;;;;;5054332;28;20399;-83
2022/07/04 13:01:47;;;;;;;8.55;1.77;;;12.30;99.90;;;;;;5056035;28;20368;-88
2022/07/04 13:04:16;;;;;;;12.38;1.90;;;12.20;99.90;;;;;;5055735;28;20375;-83
2022/07/04 13:06:43;;;;;;;10.57;1.80;;;12.30;99.90;;;;;;5054797;28;20403;-83
2022/07/04 13:09:10;;;;;;;11.55;1.98;;;12.20;99.90;;;;;;5053550;28;20380;-80
2022/07/04 13:14:23;;;;;;;12.75;2.13;;;12.30;99.90;;;;;;5052872;28;20770;-81
2022/07/04 13:16:50;;;;;;;10.50;1.73;;;12.30;99.90;;;;;;5052802;28;20426;-83
2022/07/04 13:19:18;;;;;;;14.65;2.08;;;12.30;99.90;;;;;;5052694;28;20876;-87
2022/07/04 13:21:47;;;;;;;9.23;1.58;;;12.30;99.90;;;;;;5053128;28;20803;-80